Time;durP1;ratioP1;P1;durP2;ratioP2;P2;SDS_P1;SDS_P2;PMS_P1;PMS_P2;Temp;Humidity;BMP_temperature;BMP_pressure;BME280_temperature;BME280_humidity;BME280_pressure;Samples;Min_cycle;Max_cycle;Signal;HPM_P1;HPM_P2
2023/01/08 00:01:48;;;;;;;16.85;3.42;;;;;;;;;;5026976;28;20068;-49
2023/01/08 00:04:16;;;;;;;9.07;3.70;;;;;;;;;;5032258;28;20042;-48
2023/01/08 00:06:42;;;;;;;9.93;3.80;;;;;;;;;;5030117;28;20041;-49
2023/01/08 00:09:09;;;;;;;8.75;3.33;;;;;;;;;;5027690;28;21331;-47
2023/01/08 00:11:34;;;;;;;10.40;3.78;;;;;;;;;;5029862;28;20052;-44
2023/01/08 00:14:00;;;;;;;9.15;3.30;;;;;;;;;;5028649;28;20038;-44
2023/01/08 00:16:25;;;;;;;12.07;3.80;;;;;;;;;;5028590;28;20029;-47
2023/01/08 00:18:50;;;;;;;7.55;3.30;;;;;;;;;;5026936;28;20113;-46
2023/01/08 00:21:16;;;;;;;12.60;3.00;;;;;;;;;;5028338;28;20037;-49
2023/01/08 00:23:41;;;;;;;10.25;3.17;;;;;;;;;;5030122;28;20596;-45
2023/01/08 00:26:09;;;;;;;13.27;3.80;;;;;;;;;;5028003;28;20041;-44
2023/01/08 00:28:34;;;;;;;11.05;3.65;;;;;;;;;;5026992;28;20497;-46
2023/01/08 00:31:03;;;;;;;15.98;4.03;;;;;;;;;;5028579;28;20021;-45
2023/01/08 00:33:28;;;;;;;14.30;3.95;;;;;;;;;;5027502;28;20052;-44
2023/01/08 00:35:54;;;;;;;22.42;4.35;;;;;;;;;;5029350;28;20021;-49
2023/01/08 00:38:19;;;;;;;17.02;4.22;;;;;;;;;;5026829;28;20048;-48
2023/01/08 00:40:47;;;;;;;14.35;4.43;;;;;;;;;;5030576;28;20072;-50
2023/01/08 00:43:12;;;;;;;20.85;4.47;;;;;;;;;;5027054;28;20030;-45
2023/01/08 00:45:37;;;;;;;20.77;4.63;;;;;;;;;;5025661;28;20025;-48
2023/01/08 00:48:03;;;;;;;21.08;5.47;;;;;;;;;;5028480;28;20048;-50
2023/01/08 00:50:28;;;;;;;13.50;3.95;;;;;;;;;;5028714;28;20500;-46
2023/01/08 00:52:54;;;;;;;19.92;3.92;;;;;;;;;;5028496;28;20045;-46
2023/01/08 00:55:19;;;;;;;20.48;3.72;;;;;;;;;;5028663;28;20103;-43
2023/01/08 00:57:45;;;;;;;18.67;4.70;;;;;;;;;;5026718;28;20048;-42
2023/01/08 01:00:13;;;;;;;25.70;5.40;;;;;;;;;;5026995;28;20441;-44
2023/01/08 01:02:39;;;;;;;17.08;4.57;;;;;;;;;;5029205;28;20065;-51
2023/01/08 01:05:06;;;;;;;11.88;4.13;;;;;;;;;;5029113;28;20414;-42
2023/01/08 01:07:33;;;;;;;21.88;4.93;;;;;;;;;;5025246;28;20128;-47
2023/01/08 01:09:58;;;;;;;22.73;3.97;;;;;;;;;;5028191;28;20022;-42
2023/01/08 01:12:23;;;;;;;17.02;4.68;;;;;;;;;;5025786;28;20034;-42
2023/01/08 01:14:49;;;;;;;21.17;4.90;;;;;;;;;;5027333;28;20026;-44
2023/01/08 01:17:14;;;;;;;17.13;4.50;;;;;;;;;;5026909;28;20482;-48
2023/01/08 01:19:40;;;;;;;23.90;5.20;;;;;;;;;;5029419;28;20428;-45
2023/01/08 01:22:05;;;;;;;15.20;4.43;;;;;;;;;;5027843;28;20068;-42
2023/01/08 01:24:31;;;;;;;15.68;4.05;;;;;;;;;;5029904;28;20397;-49
2023/01/08 01:26:57;;;;;;;15.43;4.63;;;;;;;;;;5028288;28;20033;-43
2023/01/08 01:29:23;;;;;;;17.23;4.82;;;;;;;;;;5027394;28;20114;-47
2023/01/08 01:31:49;;;;;;;13.93;4.60;;;;;;;;;;5026592;28;20056;-49
2023/01/08 01:34:14;;;;;;;14.75;5.38;;;;;;;;;;5029842;28;20049;-46
2023/01/08 01:36:40;;;;;;;16.02;4.40;;;;;;;;;;5028179;28;20048;-44
2023/01/08 01:39:05;;;;;;;26.17;5.25;;;;;;;;;;5029068;28;20045;-42
2023/01/08 01:41:42;;;;;;;12.63;4.53;;;;;;;;;;5028064;28;20075;-42
2023/01/08 01:44:34;;;;;;;12.70;4.43;;;;;;;;;;5026437;28;20557;-46
2023/01/08 01:47:09;;;;;;;20.25;4.10;;;;;;;;;;5024694;28;20037;-45
2023/01/08 01:49:36;;;;;;;11.85;3.47;;;;;;;;;;5027794;28;20064;-47
2023/01/08 01:52:06;;;;;;;10.85;3.80;;;;;;;;;;5027825;28;20029;-44
2023/01/08 01:54:34;;;;;;;14.35;3.88;;;;;;;;;;5005907;28;20141;-51
2023/01/08 01:57:00;;;;;;;15.85;3.55;;;;;;;;;;5007053;28;20042;-49
2023/01/08 01:59:26;;;;;;;18.95;4.75;;;;;;;;;;5004922;28;20045;-50
2023/01/08 02:01:52;;;;;;;15.00;3.92;;;;;;;;;;5006253;28;20042;-44
2023/01/08 02:04:18;;;;;;;14.52;3.83;;;;;;;;;;5009344;28;20038;-49
2023/01/08 02:06:58;;;;;;;11.20;3.75;;;;;;;;;;5005800;28;20436;-45
2023/01/08 02:09:34;;;;;;;13.27;4.05;;;;;;;;;;5003928;28;20053;-42
2023/01/08 02:12:17;;;;;;;14.27;5.13;;;;;;;;;;5003981;28;20053;-47
2023/01/08 02:14:55;;;;;;;17.63;4.35;;;;;;;;;;5004483;28;20072;-48
2023/01/08 02:17:45;;;;;;;16.75;4.20;;;;;;;;;;5002783;28;20685;-45
2023/01/08 02:20:18;;;;;;;19.55;3.88;;;;;;;;;;5006596;28;20598;-43
2023/01/08 02:22:59;;;;;;;14.07;4.10;;;;;;;;;;5006732;28;20137;-48
2023/01/08 02:25:51;;;;;;;14.77;3.92;;;;;;;;;;5005900;28;20034;-49
2023/01/08 02:28:16;;;;;;;13.25;3.60;;;;;;;;;;5014021;28;20051;-46
2023/01/08 02:30:44;;;;;;;14.75;3.88;;;;;;;;;;5026257;28;20021;-49
2023/01/08 02:33:10;;;;;;;16.40;3.15;;;;;;;;;;5023167;28;20037;-46
2023/01/08 02:35:40;;;;;;;13.25;3.50;;;;;;;;;;5026133;28;20033;-49
2023/01/08 02:38:11;;;;;;;9.90;3.53;;;;;;;;;;5025452;28;20042;-48
2023/01/08 02:41:00;;;;;;;13.57;4.22;;;;;;;;;;5026592;28;20025;-46
2023/01/08 02:43:35;;;;;;;14.40;4.10;;;;;;;;;;5025501;28;20041;-44
2023/01/08 02:46:01;;;;;;;14.57;4.68;;;;;;;;;;5026489;28;20040;-46
2023/01/08 02:48:26;;;;;;;13.73;3.53;;;;;;;;;;5023914;28;20136;-47
2023/01/08 02:50:58;;;;;;;17.60;3.95;;;;;;;;;;5027245;28;20116;-47
2023/01/08 02:53:30;;;;;;;13.80;3.72;;;;;;;;;;5024723;28;20064;-45
2023/01/08 02:56:18;;;;;;;11.73;4.10;;;;;;;;;;5028912;28;20138;-50
2023/01/08 02:58:46;;;;;;;17.92;3.58;;;;;;;;;;5026544;28;20512;-46
2023/01/08 03:01:14;;;;;;;11.80;3.25;;;;;;;;;;5025654;28;20399;-50
2023/01/08 03:03:44;;;;;;;16.10;3.17;;;;;;;;;;5027125;28;20033;-47
2023/01/08 03:06:14;;;;;;;9.00;3.40;;;;;;;;;;5025830;28;20033;-48
2023/01/08 03:08:42;;;;;;;17.20;4.28;;;;;;;;;;5026867;28;20047;-45
2023/01/08 03:11:17;;;;;;;10.75;3.63;;;;;;;;;;5025819;28;20502;-49
2023/01/08 03:14:04;;;;;;;14.55;3.33;;;;;;;;;;5025179;28;20042;-50
2023/01/08 03:16:38;;;;;;;11.23;3.45;;;;;;;;;;5022814;28;20053;-44
2023/01/08 03:19:21;;;;;;;11.02;4.05;;;;;;;;;;5024034;28;20041;-48
2023/01/08 03:21:49;;;;;;;15.68;4.00;;;;;;;;;;5024935;28;20037;-47
2023/01/08 03:24:19;;;;;;;13.65;3.40;;;;;;;;;;5025134;28;20099;-50
2023/01/08 03:26:47;;;;;;;11.25;3.58;;;;;;;;;;5029276;28;20044;-43
2023/01/08 03:29:16;;;;;;;11.43;3.75;;;;;;;;;;5029869;28;20046;-51
2023/01/08 03:31:43;;;;;;;14.73;3.80;;;;;;;;;;5031276;28;20057;-48
2023/01/08 03:34:10;;;;;;;14.32;3.72;;;;;;;;;;5029273;28;20677;-45
2023/01/08 03:36:39;;;;;;;12.88;3.90;;;;;;;;;;5028862;28;20052;-49
2023/01/08 03:39:15;;;;;;;14.80;3.85;;;;;;;;;;5029902;28;20140;-47
2023/01/08 03:41:41;;;;;;;11.98;3.58;;;;;;;;;;5027181;28;20029;-49
2023/01/08 03:44:06;;;;;;;9.35;3.03;;;;;;;;;;5028348;28;20052;-51
2023/01/08 03:46:35;;;;;;;12.13;3.92;;;;;;;;;;5030095;28;20033;-48
2023/01/08 03:49:04;;;;;;;10.48;3.17;;;;;;;;;;5029016;28;20046;-50
2023/01/08 03:51:41;;;;;;;8.88;3.10;;;;;;;;;;5027141;28;20117;-48
2023/01/08 03:54:10;;;;;;;12.27;3.42;;;;;;;;;;5027588;28;20045;-51
2023/01/08 03:56:35;;;;;;;8.23;3.15;;;;;;;;;;5029801;28;20025;-51
2023/01/08 03:59:00;;;;;;;13.43;4.00;;;;;;;;;;5026333;28;20111;-46
2023/01/08 04:01:26;;;;;;;10.40;3.10;;;;;;;;;;5030872;28;20037;-45
2023/01/08 04:03:51;;;;;;;8.93;3.63;;;;;;;;;;5029510;28;20103;-46
2023/01/08 04:06:17;;;;;;;11.15;3.90;;;;;;;;;;5043906;28;21103;-46
2023/01/08 04:08:42;;;;;;;11.02;3.28;;;;;;;;;;5043326;28;20037;-50
2023/01/08 04:11:07;;;;;;;12.77;3.25;;;;;;;;;;5028606;28;20029;-46
2023/01/08 04:13:33;;;;;;;9.90;3.40;;;;;;;;;;5025123;28;20116;-43
2023/01/08 04:15:58;;;;;;;13.13;3.63;;;;;;;;;;5029677;28;20040;-48
2023/01/08 04:18:23;;;;;;;13.07;4.00;;;;;;;;;;5027861;28;20055;-48
2023/01/08 04:20:49;;;;;;;10.98;3.60;;;;;;;;;;5027995;28;20069;-45
2023/01/08 04:23:15;;;;;;;16.88;4.03;;;;;;;;;;5028625;28;20506;-44
2023/01/08 04:25:40;;;;;;;12.40;3.70;;;;;;;;;;5029974;28;20025;-44
2023/01/08 04:28:06;;;;;;;17.02;3.65;;;;;;;;;;5030919;28;20124;-46
2023/01/08 04:30:31;;;;;;;9.15;3.28;;;;;;;;;;5028865;28;20030;-47
2023/01/08 04:32:57;;;;;;;12.10;3.60;;;;;;;;;;5041866;28;20034;-48
2023/01/08 04:35:22;;;;;;;12.57;3.15;;;;;;;;;;5029343;28;20053;-46
2023/01/08 04:37:48;;;;;;;12.85;3.70;;;;;;;;;;5027631;28;20486;-43
2023/01/08 04:40:13;;;;;;;11.55;3.50;;;;;;;;;;5028949;28;20037;-43
2023/01/08 04:42:39;;;;;;;9.10;3.80;;;;;;;;;;5028803;28;20117;-45
2023/01/08 04:45:06;;;;;;;14.45;4.13;;;;;;;;;;5028847;28;20478;-46
2023/01/08 04:47:31;;;;;;;12.10;4.00;;;;;;;;;;5025891;28;20067;-51
2023/01/08 04:49:56;;;;;;;12.65;3.13;;;;;;;;;;5028919;28;20470;-45
2023/01/08 04:52:22;;;;;;;12.55;3.67;;;;;;;;;;5028333;28;20021;-42
2023/01/08 04:54:47;;;;;;;16.33;4.15;;;;;;;;;;5028265;28;20032;-49
2023/01/08 04:57:12;;;;;;;13.73;3.65;;;;;;;;;;5028535;28;20033;-46
2023/01/08 04:59:38;;;;;;;17.20;3.85;;;;;;;;;;5030796;28;20394;-44
2023/01/08 05:02:03;;;;;;;17.27;3.83;;;;;;;;;;5026698;28;20025;-47
2023/01/08 05:04:28;;;;;;;24.45;4.40;;;;;;;;;;5027833;28;20069;-44
2023/01/08 05:06:54;;;;;;;10.85;4.22;;;;;;;;;;5029196;28;20032;-44
2023/01/08 05:09:19;;;;;;;26.50;5.03;;;;;;;;;;5029164;28;20049;-45
2023/01/08 05:11:45;;;;;;;17.58;5.22;;;;;;;;;;5025614;28;20036;-50
2023/01/08 05:14:10;;;;;;;14.18;4.60;;;;;;;;;;5027781;28;20033;-45
2023/01/08 05:16:35;;;;;;;24.30;5.15;;;;;;;;;;5027378;28;20826;-45
2023/01/08 05:19:01;;;;;;;16.52;4.60;;;;;;;;;;5027647;28;20135;-48
2023/01/08 05:21:26;;;;;;;22.10;6.15;;;;;;;;;;5029418;28;20022;-46
2023/01/08 05:23:51;;;;;;;20.00;4.88;;;;;;;;;;5026327;28;20103;-48
2023/01/08 05:26:18;;;;;;;15.48;5.65;;;;;;;;;;5027872;28;20034;-46
2023/01/08 05:28:43;;;;;;;20.50;4.68;;;;;;;;;;5026716;28;20395;-44
2023/01/08 05:31:10;;;;;;;26.05;5.22;;;;;;;;;;5027956;28;20427;-46
2023/01/08 05:33:36;;;;;;;20.33;5.78;;;;;;;;;;5023958;28;20044;-52
2023/01/08 05:36:04;;;;;;;23.95;5.28;;;;;;;;;;5027437;28;20033;-51
2023/01/08 05:38:29;;;;;;;17.35;5.10;;;;;;;;;;5024792;28;20651;-49
2023/01/08 05:40:55;;;;;;;29.33;5.80;;;;;;;;;;5028296;28;20128;-46
2023/01/08 05:43:20;;;;;;;19.25;5.20;;;;;;;;;;5026404;28;20096;-46
2023/01/08 05:45:45;;;;;;;22.27;5.57;;;;;;;;;;5027780;28;20138;-48
2023/01/08 05:48:11;;;;;;;18.17;5.55;;;;;;;;;;5025160;28;20049;-50
2023/01/08 05:50:36;;;;;;;22.23;6.28;;;;;;;;;;5027966;28;20433;-44
2023/01/08 05:53:06;;;;;;;19.17;5.15;;;;;;;;;;5027434;28;20041;-47
2023/01/08 05:55:31;;;;;;;24.13;5.90;;;;;;;;;;5028295;28;20030;-45
2023/01/08 05:58:03;;;;;;;22.35;5.65;;;;;;;;;;5027647;28;20117;-49
2023/01/08 06:00:29;;;;;;;25.33;5.55;;;;;;;;;;5022357;28;20025;-45
2023/01/08 06:02:55;;;;;;;20.35;5.80;;;;;;;;;;5023840;28;20399;-46
2023/01/08 06:05:20;;;;;;;19.27;5.07;;;;;;;;;;5026501;28;20029;-46
2023/01/08 06:07:45;;;;;;;21.70;7.00;;;;;;;;;;5026791;28;20037;-52
2023/01/08 06:10:11;;;;;;;21.80;5.93;;;;;;;;;;5025358;28;20033;-43
2023/01/08 06:12:36;;;;;;;19.52;5.53;;;;;;;;;;5025748;28;20112;-46
2023/01/08 06:15:03;;;;;;;14.45;5.28;;;;;;;;;;5025491;28;20034;-49
2023/01/08 06:17:28;;;;;;;23.55;7.32;;;;;;;;;;5026617;28;20042;-46
2023/01/08 06:19:53;;;;;;;21.00;6.18;;;;;;;;;;5025644;28;20052;-44
2023/01/08 06:22:19;;;;;;;24.75;5.50;;;;;;;;;;5027267;28;20029;-49
2023/01/08 06:24:44;;;;;;;27.63;5.80;;;;;;;;;;5026870;28;20037;-51
2023/01/08 06:27:09;;;;;;;18.10;5.38;;;;;;;;;;5028656;28;20025;-48
2023/01/08 06:29:35;;;;;;;19.42;5.60;;;;;;;;;;5024851;28;20025;-46
2023/01/08 06:32:00;;;;;;;24.63;6.88;;;;;;;;;;5025427;28;20091;-45
2023/01/08 06:34:25;;;;;;;22.42;6.35;;;;;;;;;;5038176;28;20037;-48
2023/01/08 06:36:51;;;;;;;23.85;5.90;;;;;;;;;;5029208;28;20087;-49
2023/01/08 06:39:16;;;;;;;16.30;5.03;;;;;;;;;;5025831;28;20470;-51
2023/01/08 06:41:43;;;;;;;22.42;6.68;;;;;;;;;;5026914;28;20063;-51
2023/01/08 06:44:08;;;;;;;17.83;5.95;;;;;;;;;;5026202;28;20053;-49
2023/01/08 06:46:38;;;;;;;19.63;5.97;;;;;;;;;;5024205;28;20036;-49
2023/01/08 06:49:05;;;;;;;27.27;7.93;;;;;;;;;;5019712;28;20037;-48
2023/01/08 06:51:30;;;;;;;18.17;6.47;;;;;;;;;;5024649;28;20033;-48
2023/01/08 06:53:55;;;;;;;19.65;5.88;;;;;;;;;;5023671;28;20095;-46
2023/01/08 06:56:21;;;;;;;23.85;6.50;;;;;;;;;;5023320;28;20239;-46
2023/01/08 06:58:46;;;;;;;14.32;5.05;;;;;;;;;;5022331;28;20060;-43
2023/01/08 07:01:15;;;;;;;20.85;5.10;;;;;;;;;;5028436;28;20402;-45
2023/01/08 07:03:41;;;;;;;23.45;6.03;;;;;;;;;;5030263;28;20057;-45
2023/01/08 07:06:11;;;;;;;16.88;5.63;;;;;;;;;;5030879;28;20096;-44
2023/01/08 07:08:37;;;;;;;23.05;5.50;;;;;;;;;;5029423;28;20036;-46
2023/01/08 07:11:02;;;;;;;27.27;5.75;;;;;;;;;;5026664;28;20025;-46
2023/01/08 07:13:28;;;;;;;21.25;5.30;;;;;;;;;;5028738;28;20393;-42
2023/01/08 07:15:54;;;;;;;19.70;5.68;;;;;;;;;;5028832;28;20048;-42
2023/01/08 07:18:20;;;;;;;20.92;5.75;;;;;;;;;;5029213;28;20042;-43
2023/01/08 07:20:47;;;;;;;23.90;6.20;;;;;;;;;;5030224;28;20108;-48
2023/01/08 07:23:12;;;;;;;23.30;5.53;;;;;;;;;;5028145;28;20037;-43
2023/01/08 07:25:38;;;;;;;25.58;5.43;;;;;;;;;;5030248;28;20075;-43
2023/01/08 07:28:03;;;;;;;21.48;4.85;;;;;;;;;;5027605;28;20375;-44
2023/01/08 07:30:29;;;;;;;21.83;6.43;;;;;;;;;;5029576;28;20136;-42
2023/01/08 07:33:00;;;;;;;30.83;6.63;;;;;;;;;;5028558;28;20049;-44
2023/01/08 07:35:26;;;;;;;17.63;4.80;;;;;;;;;;5028483;28;20025;-45
2023/01/08 07:37:52;;;;;;;24.00;6.18;;;;;;;;;;5027017;28;20517;-43
2023/01/08 07:40:17;;;;;;;25.30;5.85;;;;;;;;;;5031061;28;20025;-43
2023/01/08 07:42:42;;;;;;;29.90;5.82;;;;;;;;;;5028120;28;20045;-44
2023/01/08 07:45:08;;;;;;;21.42;5.57;;;;;;;;;;5029479;28;20083;-43
2023/01/08 07:47:33;;;;;;;19.10;6.22;;;;;;;;;;5028710;28;20048;-45
2023/01/08 07:49:59;;;;;;;22.98;5.38;;;;;;;;;;5030192;28;20473;-46
2023/01/08 07:52:24;;;;;;;27.98;6.15;;;;;;;;;;5028961;28;20085;-43
2023/01/08 07:54:49;;;;;;;19.63;5.53;;;;;;;;;;5029467;28;20501;-44
2023/01/08 07:57:15;;;;;;;19.50;5.30;;;;;;;;;;5032080;28;20065;-51
2023/01/08 07:59:40;;;;;;;24.65;6.55;;;;;;;;;;5027891;28;20363;-49
2023/01/08 08:02:06;;;;;;;27.17;6.30;;;;;;;;;;5028280;28;20057;-46
2023/01/08 08:04:32;;;;;;;26.77;6.50;;;;;;;;;;5029183;28;20470;-46
2023/01/08 08:06:58;;;;;;;25.10;6.35;;;;;;;;;;5029239;28;20104;-46
2023/01/08 08:09:23;;;;;;;24.63;6.57;;;;;;;;;;5027232;28;20048;-44
2023/01/08 08:11:48;;;;;;;27.15;6.93;;;;;;;;;;5029039;28;20030;-45
2023/01/08 08:14:14;;;;;;;27.83;6.28;;;;;;;;;;5030055;28;20042;-46
2023/01/08 08:16:39;;;;;;;28.10;6.20;;;;;;;;;;5027182;28;20030;-47
2023/01/08 08:19:04;;;;;;;26.40;5.65;;;;;;;;;;5028853;28;20449;-44
2023/01/08 08:21:30;;;;;;;27.33;6.28;;;;;;;;;;5032207;28;20044;-50
2023/01/08 08:23:56;;;;;;;34.92;6.40;;;;;;;;;;5025853;28;20124;-44
2023/01/08 08:26:22;;;;;;;30.63;5.93;;;;;;;;;;5027390;28;20048;-43
2023/01/08 08:28:47;;;;;;;24.67;6.72;;;;;;;;;;5028572;28;20045;-46
2023/01/08 08:31:13;;;;;;;23.17;6.78;;;;;;;;;;5030056;28;20474;-46
2023/01/08 08:33:38;;;;;;;29.63;7.28;;;;;;;;;;5027193;28;20040;-48
2023/01/08 08:36:04;;;;;;;37.78;7.43;;;;;;;;;;5029268;28;20424;-46
2023/01/08 08:38:29;;;;;;;34.78;6.72;;;;;;;;;;5024629;28;20561;-43
2023/01/08 08:40:55;;;;;;;23.80;6.18;;;;;;;;;;5028932;28;20044;-44
2023/01/08 08:43:20;;;;;;;26.02;6.38;;;;;;;;;;5028639;28;20044;-46
2023/01/08 08:45:46;;;;;;;36.95;7.47;;;;;;;;;;5027467;28;20108;-43
2023/01/08 08:48:11;;;;;;;29.60;7.40;;;;;;;;;;5020196;28;20047;-45
2023/01/08 08:50:37;;;;;;;46.22;7.90;;;;;;;;;;5026141;28;20902;-44
2023/01/08 08:53:04;;;;;;;35.17;7.25;;;;;;;;;;5023316;28;20037;-50
2023/01/08 08:55:30;;;;;;;36.55;7.90;;;;;;;;;;5023052;28;20026;-44
2023/01/08 08:58:05;;;;;;;22.00;7.07;;;;;;;;;;5026788;28;20089;-46
2023/01/08 09:00:31;;;;;;;22.55;7.15;;;;;;;;;;5019398;28;20029;-50
2023/01/08 09:02:56;;;;;;;32.38;6.78;;;;;;;;;;5022834;28;20042;-44
2023/01/08 09:05:22;;;;;;;26.38;6.25;;;;;;;;;;5016103;28;20540;-46
2023/01/08 09:07:47;;;;;;;31.85;7.07;;;;;;;;;;5013267;28;20042;-49
2023/01/08 09:10:12;;;;;;;26.40;7.28;;;;;;;;;;5019847;28;20100;-43
2023/01/08 09:12:38;;;;;;;30.60;7.25;;;;;;;;;;5010684;28;20049;-45
2023/01/08 09:15:04;;;;;;;35.30;7.72;;;;;;;;;;5013626;28;20163;-46
2023/01/08 09:17:29;;;;;;;27.83;6.57;;;;;;;;;;5018604;28;20052;-47
2023/01/08 09:19:55;;;;;;;27.52;6.72;;;;;;;;;;5024126;28;20033;-48
2023/01/08 09:22:20;;;;;;;25.98;7.68;;;;;;;;;;5027992;28;20022;-46
2023/01/08 09:24:45;;;;;;;27.33;7.18;;;;;;;;;;5026295;28;20061;-43
2023/01/08 09:27:11;;;;;;;36.28;7.65;;;;;;;;;;5026191;28;20025;-45
2023/01/08 09:29:37;;;;;;;33.15;6.72;;;;;;;;;;5027156;28;20104;-46
2023/01/08 09:32:06;;;;;;;32.95;6.53;;;;;;;;;;5022539;28;20025;-50
2023/01/08 09:34:31;;;;;;;29.40;7.18;;;;;;;;;;5027773;28;20047;-43
2023/01/08 09:36:57;;;;;;;28.95;7.95;;;;;;;;;;5023919;28;20030;-45
2023/01/08 09:39:22;;;;;;;26.92;6.60;;;;;;;;;;5009358;28;20042;-49
2023/01/08 09:41:49;;;;;;;32.08;6.95;;;;;;;;;;5007029;28;20052;-49
2023/01/08 09:44:18;;;;;;;29.08;7.50;;;;;;;;;;5003171;28;20041;-44
2023/01/08 09:46:45;;;;;;;31.83;5.82;;;;;;;;;;5005483;28;20033;-45
2023/01/08 09:49:19;;;;;;;26.85;6.97;;;;;;;;;;5022902;28;20473;-43
2023/01/08 09:51:45;;;;;;;23.17;5.95;;;;;;;;;;5020308;28;20036;-50
2023/01/08 09:54:14;;;;;;;13.25;4.78;;;;;;;;;;5021478;28;20034;-47
2023/01/08 09:56:40;;;;;;;19.85;5.47;;;;;;;;;;5020172;28;20036;-49
2023/01/08 09:59:06;;;;;;;14.27;4.57;;;;;;;;;;5015258;28;20530;-43
2023/01/08 10:01:38;;;;;;;24.02;5.18;;;;;;;;;;5020555;28;20036;-48
2023/01/08 10:04:14;;;;;;;13.57;5.13;;;;;;;;;;5017308;28;20569;-46
2023/01/08 10:06:45;;;;;;;17.45;4.68;;;;;;;;;;5019025;28;20029;-48
2023/01/08 10:09:13;;;;;;;17.38;5.90;;;;;;;;;;5021172;28;20068;-48
2023/01/08 10:11:42;;;;;;;22.08;4.88;;;;;;;;;;5027430;28;20022;-46
2023/01/08 10:14:22;;;;;;;20.38;4.65;;;;;;;;;;5022860;28;20077;-48
2023/01/08 10:16:52;;;;;;;25.45;6.32;;;;;;;;;;5024431;28;20478;-46
2023/01/08 10:19:18;;;;;;;20.15;5.43;;;;;;;;;;5025256;28;20057;-44
2023/01/08 10:21:43;;;;;;;25.02;4.40;;;;;;;;;;5028581;28;20083;-46
2023/01/08 10:24:08;;;;;;;13.35;4.28;;;;;;;;;;5026209;28;20509;-44
2023/01/08 10:26:36;;;;;;;21.42;4.72;;;;;;;;;;5024327;28;20044;-48
2023/01/08 10:29:14;;;;;;;14.85;4.10;;;;;;;;;;5022306;28;20068;-44
2023/01/08 10:32:13;;;;;;;12.00;4.50;;;;;;;;;;5025767;28;20038;-46
2023/01/08 10:34:43;;;;;;;18.75;4.43;;;;;;;;;;5028227;28;20071;-47
2023/01/08 10:37:41;;;;;;;11.32;4.10;;;;;;;;;;5028181;28;20049;-51
2023/01/08 10:40:41;;;;;;;10.73;3.55;;;;;;;;;;5035092;28;20045;-50
2023/01/08 10:43:23;;;;;;;13.88;3.50;;;;;;;;;;5030475;28;20049;-48
2023/01/08 10:45:56;;;;;;;;;;;;;;;;;;5034250;28;20590;-48
2023/01/08 10:48:24;;;;;;;6.90;3.10;;;;;;;;;;5038396;28;20373;-44
2023/01/08 10:50:49;;;;;;;7.50;2.92;;;;;;;;;;5033392;28;20104;-49
2023/01/08 10:53:27;;;;;;;10.40;3.50;;;;;;;;;;5032272;28;20042;-44
2023/01/08 10:56:03;;;;;;;8.05;3.22;;;;;;;;;;5034520;28;20041;-47
2023/01/08 10:58:38;;;;;;;9.68;3.65;;;;;;;;;;5038326;28;20037;-52
2023/01/08 11:01:22;;;;;;;13.05;3.53;;;;;;;;;;5026785;28;20029;-49
2023/01/08 11:03:52;;;;;;;10.70;3.20;;;;;;;;;;5029309;28;20029;-49
2023/01/08 11:06:22;;;;;;;12.55;3.60;;;;;;;;;;5037744;28;20045;-45
2023/01/08 11:08:53;;;;;;;13.23;3.25;;;;;;;;;;5035470;28;20532;-47
2023/01/08 11:11:19;;;;;;;8.27;3.15;;;;;;;;;;5032015;28;20091;-50
2023/01/08 11:14:02;;;;;;;6.45;2.70;;;;;;;;;;5030507;28;20061;-46
2023/01/08 11:16:37;;;;;;;10.15;3.95;;;;;;;;;;5025814;28;20029;-51
2023/01/08 11:19:04;;;;;;;6.68;2.65;;;;;;;;;;5032488;28;20044;-46
2023/01/08 11:21:31;;;;;;;10.02;3.33;;;;;;;;;;5028879;28;20414;-47
2023/01/08 11:24:20;;;;;;;12.30;3.22;;;;;;;;;;5027844;28;20033;-48
2023/01/08 11:26:56;;;;;;;7.28;3.25;;;;;;;;;;5028756;28;20037;-49
2023/01/08 11:29:29;;;;;;;7.10;3.25;;;;;;;;;;5027140;28;20049;-51
2023/01/08 11:32:36;;;;;;;7.25;3.67;;;;;;;;;;5022123;28;20037;-47
2023/01/08 11:35:12;;;;;;;12.20;3.63;;;;;;;;;;4987328;28;20083;-48
2023/01/08 11:37:40;;;;;;;12.15;4.07;;;;;;;;;;4988937;28;20113;-48
2023/01/08 11:40:20;;;;;;;6.20;3.00;;;;;;;;;;4987663;28;20073;-49
2023/01/08 11:43:16;;;;;;;9.68;3.28;;;;;;;;;;4988710;28;20062;-49
2023/01/08 11:46:13;;;;;;;8.98;3.58;;;;;;;;;;4988480;28;20046;-51
2023/01/08 11:48:44;;;;;;;7.07;3.30;;;;;;;;;;4983926;28;20042;-49
2023/01/08 11:51:39;;;;;;;5.95;3.05;;;;;;;;;;4988889;28;20072;-49
2023/01/08 11:54:39;;;;;;;12.68;4.18;;;;;;;;;;4957593;28;20074;-49
2023/01/08 11:57:34;;;;;;;6.15;3.17;;;;;;;;;;4899517;29;20083;-46
2023/01/08 12:00:21;;;;;;;8.23;3.30;;;;;;;;;;4902733;29;20052;-51
2023/01/08 12:02:55;;;;;;;11.07;3.42;;;;;;;;;;4902665;29;20084;-51
2023/01/08 12:05:25;;;;;;;7.00;3.15;;;;;;;;;;4906351;29;20044;-50
2023/01/08 12:08:02;;;;;;;6.65;3.40;;;;;;;;;;4910603;29;20068;-46
2023/01/08 12:11:21;;;;;;;8.82;4.20;;;;;;;;;;4903816;29;20064;-47
2023/01/08 12:14:05;;;;;;;10.95;3.53;;;;;;;;;;4904245;29;20599;-52
2023/01/08 12:17:10;;;;;;;10.45;3.53;;;;;;;;;;4899833;29;20044;-46
2023/01/08 12:19:57;;;;;;;8.65;3.80;;;;;;;;;;4862818;29;20060;-49
2023/01/08 12:23:05;;;;;;;8.93;3.25;;;;;;;;;;4860994;29;20073;-49
2023/01/08 12:25:36;;;;;;;14.38;3.97;;;;;;;;;;4855653;29;20041;-48
2023/01/08 12:28:07;;;;;;;6.95;3.42;;;;;;;;;;4861105;29;20049;-46
2023/01/08 12:30:59;;;;;;;4.78;2.97;;;;;;;;;;4867702;29;20053;-49
2023/01/08 12:33:42;;;;;;;8.68;3.53;;;;;;;;;;4878097;29;20069;-50
2023/01/08 12:36:13;;;;;;;12.55;3.85;;;;;;;;;;4896870;29;20052;-51
2023/01/08 12:38:45;;;;;;;10.27;3.40;;;;;;;;;;4898311;29;20061;-50
2023/01/08 12:41:15;;;;;;;4.88;3.28;;;;;;;;;;4897238;29;20052;-50
2023/01/08 12:43:52;;;;;;;9.85;3.38;;;;;;;;;;4900069;29;20049;-50
2023/01/08 12:46:19;;;;;;;9.90;3.60;;;;;;;;;;4895078;29;20028;-50
2023/01/08 12:48:47;;;;;;;7.68;3.30;;;;;;;;;;4943482;29;20039;-46
2023/01/08 12:51:31;;;;;;;5.35;3.25;;;;;;;;;;4945460;28;20126;-46
2023/01/08 12:54:02;;;;;;;10.88;3.97;;;;;;;;;;4947561;29;20036;-48
2023/01/08 12:56:46;;;;;;;12.20;3.78;;;;;;;;;;5023939;28;20025;-48
2023/01/08 12:59:14;;;;;;;11.65;4.90;;;;;;;;;;5008741;28;20073;-52
2023/01/08 13:02:17;;;;;;;10.85;4.40;;;;;;;;;;5005037;28;20036;-50
2023/01/08 13:04:47;;;;;;;16.60;3.60;;;;;;;;;;5007064;28;20445;-51
2023/01/08 13:07:29;;;;;;;9.75;3.60;;;;;;;;;;5008908;28;20080;-46
2023/01/08 13:10:07;;;;;;;;;;;;;;;;;;5010848;28;20038;-45
2023/01/08 13:12:36;;;;;;;11.02;4.20;;;;;;;;;;5003481;28;20007;-46
2023/01/08 13:15:03;;;;;;;9.27;3.47;;;;;;;;;;5006161;28;20199;-47
2023/01/08 13:17:28;;;;;;;10.38;3.85;;;;;;;;;;5006938;28;20042;-49
2023/01/08 13:19:59;;;;;;;9.25;3.92;;;;;;;;;;5006850;28;20394;-45
2023/01/08 13:22:33;;;;;;;9.65;4.47;;;;;;;;;;5005478;28;20038;-44
2023/01/08 13:25:28;;;;;;;7.50;4.18;;;;;;;;;;5001087;28;20093;-43
2023/01/08 13:27:53;;;;;;;11.15;4.03;;;;;;;;;;5010509;28;20049;-46
2023/01/08 13:30:41;;;;;;;7.15;4.22;;;;;;;;;;5028358;28;20036;-47
2023/01/08 13:33:33;;;;;;;8.98;4.32;;;;;;;;;;5021100;28;20041;-43
2023/01/08 13:36:19;;;;;;;7.45;4.03;;;;;;;;;;5027939;28;20557;-43
2023/01/08 13:38:45;;;;;;;8.93;4.85;;;;;;;;;;5026430;28;20516;-43
2023/01/08 13:41:58;;;;;;;10.68;4.00;;;;;;;;;;5024359;28;20037;-47
2023/01/08 13:44:23;;;;;;;10.95;4.03;;;;;;;;;;4985129;28;20237;-43
2023/01/08 13:46:57;;;;;;;12.77;3.78;;;;;;;;;;4985991;28;20125;-45
2023/01/08 13:49:31;;;;;;;14.45;4.68;;;;;;;;;;4986278;28;20042;-43
2023/01/08 13:51:57;;;;;;;9.30;4.38;;;;;;;;;;4985942;28;20051;-45
2023/01/08 13:54:31;;;;;;;14.02;4.72;;;;;;;;;;4983496;28;20034;-43
2023/01/08 13:57:04;;;;;;;7.60;4.28;;;;;;;;;;4985007;28;20085;-47
2023/01/08 13:59:33;;;;;;;8.18;4.20;;;;;;;;;;4983406;28;20147;-43
2023/01/08 14:02:00;;;;;;;11.27;4.45;;;;;;;;;;4984546;28;20149;-45
2023/01/08 14:04:25;;;;;;;12.48;4.93;;;;;;;;;;4982883;28;20125;-46
2023/01/08 14:06:51;;;;;;;9.95;5.38;;;;;;;;;;4984719;28;20225;-44
2023/01/08 14:09:24;;;;;;;15.00;5.97;;;;;;;;;;4983017;28;20144;-46
2023/01/08 14:11:52;;;;;;;19.05;6.47;;;;;;;;;;4983543;28;20074;-45
2023/01/08 14:14:20;;;;;;;14.00;5.43;;;;;;;;;;4983714;28;20038;-45
2023/01/08 14:16:51;;;;;;;15.52;4.28;;;;;;;;;;4986167;28;20030;-49
2023/01/08 14:19:21;;;;;;;12.40;5.55;;;;;;;;;;5023727;28;20581;-44
2023/01/08 14:21:53;;;;;;;9.20;5.13;;;;;;;;;;5023941;28;20068;-46
2023/01/08 14:24:20;;;;;;;12.80;5.25;;;;;;;;;;5023776;28;20131;-43
2023/01/08 14:26:57;;;;;;;7.63;4.13;;;;;;;;;;5027301;28;20026;-45
2023/01/08 14:29:26;;;;;;;11.73;4.45;;;;;;;;;;5026776;28;20472;-48
2023/01/08 14:31:54;;;;;;;13.82;4.90;;;;;;;;;;5027168;28;20367;-46
2023/01/08 14:34:20;;;;;;;12.98;4.38;;;;;;;;;;5028472;28;20087;-51
2023/01/08 14:36:50;;;;;;;11.52;4.15;;;;;;;;;;5025312;28;20160;-48
2023/01/08 14:39:22;;;;;;;11.38;4.03;;;;;;;;;;5024942;28;20049;-43
2023/01/08 14:44:32;;;;;;;13.85;4.47;;;;;;;;;;5024601;28;19936;-45
2023/01/08 14:46:58;;;;;;;11.45;4.20;;;;;;;;;;5026390;28;20021;-46
2023/01/08 14:49:28;;;;;;;15.73;5.07;;;;;;;;;;5021148;28;20045;-43
2023/01/08 14:51:55;;;;;;;16.05;5.20;;;;;;;;;;5025467;28;20037;-45
2023/01/08 14:54:26;;;;;;;13.05;4.57;;;;;;;;;;5023402;28;20356;-48